Time;durP1;ratioP1;P1;durP2;ratioP2;P2;SDS_P1;SDS_P2;PMS_P1;PMS_P2;Temp;Humidity;BMP_temperature;BMP_pressure;BME280_temperature;BME280_humidity;BME280_pressure;Samples;Min_cycle;Max_cycle;Signal;HPM_P1;HPM_P2
2023/12/29 00:00:57;;;;;;;0.00;0.00;;;;;;;7.41;100.00;99490.88;5104505;27;20040;-77
2023/12/29 00:03:23;;;;;;;0.00;0.00;;;;;;;7.46;100.00;99483.53;5108478;27;20023;-76
2023/12/29 00:05:48;;;;;;;0.00;0.00;;;;;;;7.38;100.00;99473.19;5088108;27;20079;-75
2023/12/29 00:08:13;;;;;;;0.00;0.00;;;;;;;7.49;100.00;99487.63;5093926;27;20023;-77
2023/12/29 00:10:41;;;;;;;0.10;0.10;;;;;;;7.41;100.00;99475.34;5108118;27;20019;-76
2023/12/29 00:13:06;;;;;;;0.00;0.00;;;;;;;7.40;100.00;99473.72;5090956;28;20022;-76
2023/12/29 00:15:32;;;;;;;0.00;0.00;;;;;;;7.50;100.00;99500.97;5091235;28;20031;-76
2023/12/29 00:17:57;;;;;;;0.00;0.00;;;;;;;7.52;100.00;99487.09;5090639;28;20111;-76
2023/12/29 00:20:23;;;;;;;0.00;0.00;;;;;;;7.50;100.00;99484.66;5084279;28;20255;-75
2023/12/29 00:22:48;;;;;;;0.00;0.00;;;;;;;7.62;100.00;99492.56;5084292;27;20027;-76
2023/12/29 00:25:14;;;;;;;0.00;0.00;;;;;;;7.55;100.00;99496.59;5110886;27;20051;-75
2023/12/29 00:27:44;;;;;;;0.00;0.00;;;;;;;7.55;100.00;99483.00;5101410;27;20050;-75
2023/12/29 00:30:10;;;;;;;0.00;0.00;;;;;;;7.63;100.00;99509.69;5103117;27;20388;-76
2023/12/29 00:32:35;;;;;;;0.00;0.00;;;;;;;7.72;100.00;99497.19;5115158;27;20039;-76
2023/12/29 00:35:00;;;;;;;0.00;0.00;;;;;;;7.70;100.00;99499.38;5118148;27;20115;-75
2023/12/29 00:37:26;;;;;;;0.00;0.00;;;;;;;7.65;100.00;99512.94;5138506;27;20402;-76
2023/12/29 00:39:51;;;;;;;0.00;0.00;;;;;;;7.73;100.00;99503.47;5114486;27;20042;-76
2023/12/29 00:42:24;;;;;;;0.00;0.00;;;;;;;7.76;100.00;99513.81;5112317;27;20034;-76
2023/12/29 00:44:49;;;;;;;0.00;0.00;;;;;;;7.89;100.00;99518.72;5108315;27;20403;-75
2023/12/29 00:47:15;;;;;;;0.00;0.00;;;;;;;7.91;100.00;99500.19;5123653;27;20027;-75
2023/12/29 00:49:44;;;;;;;0.00;0.00;;;;;;;7.90;100.00;99487.69;5122772;27;20031;-75
2023/12/29 00:52:09;;;;;;;0.00;0.00;;;;;;;7.94;100.00;99496.94;5140103;27;20099;-75
2023/12/29 00:54:39;;;;;;;0.00;0.00;;;;;;;7.92;100.00;99490.16;5119184;27;20019;-75
2023/12/29 00:57:05;;;;;;;0.00;0.00;;;;;;;8.02;100.00;99503.75;5110139;27;20038;-75
2023/12/29 00:59:30;;;;;;;0.00;0.00;;;;;;;8.12;100.00;99494.75;5117583;27;20426;-75
2023/12/29 01:01:55;;;;;;;0.00;0.00;;;;;;;8.01;100.00;99477.63;5137618;27;20464;-76
2023/12/29 01:04:21;;;;;;;0.00;0.00;;;;;;;8.01;100.00;99480.34;5126805;27;20050;-75
2023/12/29 01:06:46;;;;;;;0.00;0.00;;;;;;;8.01;100.00;99472.97;5109061;27;20058;-75
2023/12/29 01:09:12;;;;;;;0.00;0.00;;;;;;;8.01;100.00;99483.06;5132477;27;20025;-74
2023/12/29 01:11:37;;;;;;;0.00;0.00;;;;;;;7.97;100.00;99460.19;5146614;27;20102;-76
2023/12/29 01:14:03;;;;;;;0.00;0.00;;;;;;;8.18;100.00;99477.34;5122313;27;20083;-75
2023/12/29 01:16:38;;;;;;;0.00;0.00;;;;;;;8.17;100.00;99476.53;5124113;27;20026;-75
2023/12/29 01:19:04;;;;;;;0.00;0.00;;;;;;;8.07;100.00;99448.50;5105371;27;20041;-74
2023/12/29 01:21:33;;;;;;;0.00;0.00;;;;;;;8.08;100.00;99445.50;5123752;27;20023;-77
2023/12/29 01:24:04;;;;;;;0.00;0.00;;;;;;;8.18;100.00;99464.53;5108474;27;20055;-76
2023/12/29 01:26:32;;;;;;;0.00;0.00;;;;;;;8.12;100.00;99451.19;5123788;27;20084;-76
2023/12/29 01:28:59;;;;;;;0.00;0.00;;;;;;;8.13;100.00;99445.50;5098536;27;20023;-77
2023/12/29 01:31:30;;;;;;;0.00;0.00;;;;;;;8.18;100.00;99452.84;5126850;27;20015;-77
2023/12/29 01:33:55;;;;;;;0.00;0.00;;;;;;;8.33;100.00;99462.91;5124283;27;20861;-76
2023/12/29 01:36:25;;;;;;;0.00;0.00;;;;;;;8.23;100.00;99436.47;5122620;27;20027;-76
2023/12/29 01:38:50;;;;;;;0.00;0.00;;;;;;;8.32;100.00;99451.19;5110810;27;20027;-76
2023/12/29 01:41:19;;;;;;;0.00;0.00;;;;;;;8.32;100.00;99444.91;5107978;27;20038;-76
2023/12/29 01:44:00;;;;;;;0.00;0.00;;;;;;;8.41;100.00;99459.63;5116308;27;20357;-77
2023/12/29 01:46:28;;;;;;;0.00;0.00;;;;;;;8.15;100.00;99416.06;5120123;27;20109;-76
2023/12/29 01:48:54;;;;;;;0.00;0.00;;;;;;;8.33;100.00;99432.94;5139408;27;20038;-76
2023/12/29 01:51:23;;;;;;;0.00;0.00;;;;;;;8.30;100.00;99425.31;5104861;27;20020;-77
2023/12/29 01:53:50;;;;;;;0.00;0.00;;;;;;;8.32;100.00;99423.13;5114073;27;20092;-75
2023/12/29 01:56:16;;;;;;;0.00;0.00;;;;;;;8.31;100.00;99421.47;5096973;27;20584;-77
2023/12/29 01:58:46;;;;;;;0.00;0.00;;;;;;;8.41;100.00;99435.09;5099644;27;20076;-76
2023/12/29 02:01:12;;;;;;;0.00;0.00;;;;;;;8.46;100.00;99454.19;5141407;27;20046;-78
2023/12/29 02:03:38;;;;;;;0.00;0.00;;;;;;;8.35;100.00;99434.28;5143994;27;20707;-76
2023/12/29 02:06:05;;;;;;;0.00;0.00;;;;;;;8.36;100.00;99435.91;5136037;27;20094;-78
2023/12/29 02:08:39;;;;;;;0.00;0.00;;;;;;;8.51;100.00;99464.25;5103775;27;20761;-77
2023/12/29 02:11:04;;;;;;;0.00;0.00;;;;;;;8.40;100.00;99447.09;5135739;27;20061;-75
2023/12/29 02:13:30;;;;;;;0.00;0.00;;;;;;;8.33;100.00;99441.91;5099276;27;20485;-77
2023/12/29 02:16:02;;;;;;;0.00;0.00;;;;;;;8.47;100.00;99442.19;5119810;27;20764;-77
2023/12/29 02:18:33;;;;;;;0.00;0.00;;;;;;;8.37;100.00;99425.84;5117870;27;20019;-76
2023/12/29 02:20:58;;;;;;;0.00;0.00;;;;;;;8.43;100.00;99430.19;5122942;27;20023;-75
2023/12/29 02:23:26;;;;;;;0.00;0.00;;;;;;;8.52;100.00;99434.00;5123015;27;20019;-77
2023/12/29 02:25:58;;;;;;;0.00;0.00;;;;;;;8.52;100.00;99431.28;5129880;27;20039;-75
2023/12/29 02:28:29;;;;;;;0.00;0.00;;;;;;;8.58;100.00;99439.44;5119190;27;20019;-79
2023/12/29 02:31:12;;;;;;;0.00;0.00;;;;;;;8.54;100.00;99439.16;5121595;27;20446;-76
2023/12/29 02:33:42;;;;;;;0.00;0.00;;;;;;;8.69;100.00;99460.13;5139158;27;20023;-76
2023/12/29 02:36:12;;;;;;;0.00;0.00;;;;;;;8.79;100.00;99470.19;5118065;27;20023;-76
2023/12/29 02:38:38;;;;;;;0.00;0.00;;;;;;;8.77;100.00;99470.44;5129164;27;20263;-75
2023/12/29 02:41:06;;;;;;;0.00;0.00;;;;;;;8.66;100.00;99445.16;5133679;27;20360;-75
2023/12/29 02:43:32;;;;;;;0.00;0.00;;;;;;;8.71;100.00;99450.56;5116849;27;20019;-75
2023/12/29 02:45:58;;;;;;;0.00;0.00;;;;;;;8.71;100.00;99457.94;5123894;27;20027;-75
2023/12/29 02:48:24;;;;;;;0.00;0.00;;;;;;;8.82;100.00;99454.09;5115491;27;21812;-76
2023/12/29 02:50:49;;;;;;;0.00;0.00;;;;;;;8.82;100.00;99453.25;5124562;27;20037;-75
2023/12/29 02:53:14;;;;;;;0.00;0.00;;;;;;;8.94;100.00;99461.97;5119735;27;20038;-75
2023/12/29 02:55:40;;;;;;;0.00;0.00;;;;;;;8.89;100.00;99451.06;5137781;27;20027;-75
2023/12/29 02:58:09;;;;;;;0.00;0.00;;;;;;;8.95;100.00;99438.22;5114430;27;20027;-75
2023/12/29 03:00:34;;;;;;;0.10;0.10;;;;;;;9.03;100.00;99470.38;5114773;27;20473;-75
2023/12/29 03:03:02;;;;;;;0.00;0.00;;;;;;;8.93;100.00;99433.06;5102939;27;20027;-75
2023/12/29 03:05:28;;;;;;;0.00;0.00;;;;;;;8.97;100.00;99420.50;5123597;27;20022;-76
2023/12/29 03:07:53;;;;;;;0.00;0.00;;;;;;;9.10;100.00;99421.81;5089634;27;20080;-76
2023/12/29 03:10:19;;;;;;;0.00;0.00;;;;;;;9.19;100.00;99431.00;5114484;27;20022;-75
2023/12/29 03:12:44;;;;;;;0.00;0.00;;;;;;;9.04;100.00;99390.19;5114226;27;20182;-75
2023/12/29 03:15:10;;;;;;;0.00;0.00;;;;;;;9.05;100.00;99403.56;5114294;27;20030;-75
2023/12/29 03:17:38;;;;;;;0.00;0.00;;;;;;;9.13;100.00;99396.69;5138530;27;20022;-75
2023/12/29 03:20:04;;;;;;;0.00;0.00;;;;;;;9.23;100.00;99404.81;5103410;27;20023;-75
2023/12/29 03:22:40;;;;;;;;;;;;;;;;;;;;;
2023/12/29 03:25:06;;;;;;;0.00;0.00;;;;;;;9.16;100.00;99387.94;5134406;27;20377;-75
2023/12/29 03:27:32;;;;;;;0.10;0.10;;;;;;;9.25;100.00;99388.97;5104730;27;20125;-75
2023/12/29 03:29:59;;;;;;;0.00;0.00;;;;;;;9.17;100.00;99384.13;5099944;27;20035;-76
2023/12/29 03:32:25;;;;;;;0.00;0.00;;;;;;;9.21;100.00;99379.75;5120482;27;20026;-76
2023/12/29 03:34:50;;;;;;;0.00;0.00;;;;;;;9.24;100.00;99389.25;5118970;27;20031;-76
2023/12/29 03:37:26;;;;;;;0.00;0.00;;;;;;;9.34;100.00;99391.09;5121097;27;20023;-76
2023/12/29 03:39:52;;;;;;;0.00;0.00;;;;;;;9.24;100.00;99387.34;5119097;27;20095;-75
2023/12/29 03:42:17;;;;;;;0.00;0.00;;;;;;;9.13;100.00;99366.69;5145278;27;20022;-76
2023/12/29 03:44:42;;;;;;;0.00;0.00;;;;;;;9.38;100.00;99417.53;5127490;27;20050;-75
2023/12/29 03:47:10;;;;;;;0.00;0.00;;;;;;;9.36;100.00;99402.53;5102839;27;20023;-75
2023/12/29 03:49:36;;;;;;;0.00;0.00;;;;;;;9.30;100.00;99393.59;5121042;27;20034;-76
2023/12/29 03:52:01;;;;;;;0.00;0.00;;;;;;;9.47;100.00;99419.69;5095192;27;20432;-77
2023/12/29 03:54:29;;;;;;;0.00;0.00;;;;;;;9.36;100.00;99383.44;5115357;27;20402;-76
2023/12/29 03:56:54;;;;;;;0.00;0.00;;;;;;;9.26;100.00;99385.16;5116615;27;20065;-74
2023/12/29 03:59:29;;;;;;;0.00;0.00;;;;;;;9.23;100.00;99380.25;5116080;27;20612;-75
2023/12/29 04:01:55;;;;;;;0.00;0.00;;;;;;;9.39;100.00;99402.00;5104479;27;20039;-76
2023/12/29 04:04:20;;;;;;;0.00;0.00;;;;;;;9.28;100.00;99389.50;5099251;27;20019;-76
2023/12/29 04:06:46;;;;;;;0.00;0.00;;;;;;;9.19;100.00;99381.91;5090375;27;20117;-74
2023/12/29 04:09:11;;;;;;;0.00;0.00;;;;;;;9.26;100.00;99396.06;5088568;27;20071;-75
2023/12/29 04:11:39;;;;;;;0.00;0.00;;;;;;;9.45;100.00;99400.84;5120991;27;20114;-74
2023/12/29 04:14:04;;;;;;;0.00;0.00;;;;;;;9.46;100.00;99391.56;5120800;27;20031;-75
2023/12/29 04:16:30;;;;;;;0.00;0.00;;;;;;;9.32;100.00;99372.28;5113989;27;20026;-75
2023/12/29 04:18:55;;;;;;;0.00;0.00;;;;;;;9.40;100.00;99376.31;5132868;27;20039;-75
2023/12/29 04:21:27;;;;;;;0.00;0.00;;;;;;;9.37;100.00;99382.34;5101227;27;20589;-75
2023/12/29 04:23:52;;;;;;;0.10;0.10;;;;;;;9.33;100.00;99370.38;5111407;27;20384;-76
2023/12/29 04:26:20;;;;;;;0.00;0.00;;;;;;;9.37;100.00;99374.16;5079540;27;20138;-76
2023/12/29 04:28:52;;;;;;;0.00;0.00;;;;;;;9.38;100.00;99362.97;5105488;27;20071;-75
2023/12/29 04:31:21;;;;;;;0.00;0.00;;;;;;;9.44;100.00;99391.03;5102103;27;20031;-77
2023/12/29 04:33:49;;;;;;;0.00;0.00;;;;;;;9.41;100.00;99377.97;5120382;27;20031;-77
2023/12/29 04:36:14;;;;;;;0.00;0.00;;;;;;;9.48;100.00;99383.91;5118541;27;20095;-75
2023/12/29 04:38:40;;;;;;;0.00;0.00;;;;;;;9.48;100.00;99388.56;5106166;27;20047;-76
2023/12/29 04:41:05;;;;;;;0.00;0.00;;;;;;;9.48;100.00;99386.63;5083421;27;20457;-75
2023/12/29 04:43:31;;;;;;;0.00;0.00;;;;;;;9.42;100.00;99379.59;5103744;27;20031;-75
2023/12/29 04:46:01;;;;;;;0.00;0.00;;;;;;;9.26;100.00;99371.50;5109144;27;20122;-77
2023/12/29 04:48:26;;;;;;;0.00;0.00;;;;;;;9.16;100.00;99382.47;5093746;27;20046;-75
2023/12/29 04:50:52;;;;;;;0.00;0.00;;;;;;;8.94;100.00;99379.34;5129872;27;20027;-76
2023/12/29 04:53:17;;;;;;;0.00;0.00;;;;;;;8.86;100.00;99381.56;5126633;27;20036;-76
2023/12/29 04:55:43;;;;;;;0.00;0.00;;;;;;;8.89;100.00;99405.53;5121927;27;20118;-76
2023/12/29 04:58:10;;;;;;;0.00;0.00;;;;;;;8.72;100.00;99388.72;5133391;27;20033;-76
2023/12/29 05:00:36;;;;;;;0.00;0.00;;;;;;;8.68;100.00;99398.53;5120953;27;20560;-76
2023/12/29 05:03:01;;;;;;;0.00;0.00;;;;;;;8.59;100.00;99394.75;5122618;27;20031;-76
2023/12/29 05:05:27;;;;;;;0.00;0.00;;;;;;;8.53;100.00;99402.13;5087086;27;21566;-76
2023/12/29 05:07:52;;;;;;;0.00;0.00;;;;;;;8.63;100.00;99413.00;5121383;27;20486;-75
2023/12/29 05:10:18;;;;;;;0.00;0.00;;;;;;;8.55;100.00;99408.91;5111891;27;21495;-76
2023/12/29 05:12:43;;;;;;;0.00;0.00;;;;;;;8.56;100.00;99410.56;5112430;27;20022;-76
2023/12/29 05:15:11;;;;;;;0.00;0.00;;;;;;;8.39;100.00;99391.78;5101412;27;20114;-76
2023/12/29 05:17:38;;;;;;;0.00;0.00;;;;;;;8.53;100.00;99422.03;5100810;27;20072;-75
2023/12/29 05:20:06;;;;;;;0.00;0.00;;;;;;;8.32;100.00;99393.16;5139229;27;20050;-76
2023/12/29 05:22:36;;;;;;;0.00;0.00;;;;;;;8.30;100.00;99387.19;5111970;27;20062;-76
2023/12/29 05:25:02;;;;;;;0.00;0.00;;;;;;;8.39;100.00;99410.03;5104117;27;20038;-77
2023/12/29 05:27:27;;;;;;;0.00;0.00;;;;;;;8.32;100.00;99409.50;5123121;27;20031;-77
2023/12/29 05:29:53;;;;;;;0.00;0.00;;;;;;;8.35;100.00;99417.13;5100675;27;20045;-76
2023/12/29 05:32:18;;;;;;;0.00;0.00;;;;;;;8.24;100.00;99410.88;5109717;27;20019;-75
2023/12/29 05:34:46;;;;;;;0.00;0.00;;;;;;;8.18;100.00;99415.53;5118485;27;20827;-76
2023/12/29 05:37:12;;;;;;;0.00;0.00;;;;;;;8.16;100.00;99420.44;5114832;27;20019;-75
2023/12/29 05:39:39;;;;;;;0.00;0.00;;;;;;;8.08;100.00;99410.09;5093873;27;20039;-74
2023/12/29 05:42:05;;;;;;;0.00;0.00;;;;;;;8.31;100.00;99426.94;5126274;27;20027;-76
2023/12/29 05:44:39;;;;;;;0.00;0.00;;;;;;;8.28;100.00;99427.47;5137875;27;20026;-76
2023/12/29 05:47:07;;;;;;;0.00;0.00;;;;;;;8.14;100.00;99417.16;5117536;27;20052;-75
2023/12/29 05:49:37;;;;;;;0.00;0.00;;;;;;;8.12;100.00;99432.97;5131628;27;20032;-75
2023/12/29 05:52:06;;;;;;;0.00;0.00;;;;;;;8.15;100.00;99440.59;5086287;27;20015;-76
2023/12/29 05:54:34;;;;;;;0.00;0.00;;;;;;;7.95;100.00;99413.38;5113617;27;20023;-75
2023/12/29 05:57:02;;;;;;;0.00;0.00;;;;;;;7.91;100.00;99425.91;5100614;27;20031;-76
2023/12/29 05:59:27;;;;;;;0.00;0.00;;;;;;;7.71;100.00;99400.31;5128961;27;20021;-76
2023/12/29 06:01:56;;;;;;;0.00;0.00;;;;;;;7.80;100.00;99420.44;5098630;27;20375;-74
2023/12/29 06:04:29;;;;;;;0.00;0.00;;;;;;;7.98;100.00;99449.03;5109374;27;20498;-78
2023/12/29 06:06:54;;;;;;;0.00;0.00;;;;;;;7.77;100.00;99410.13;5118690;27;20049;-75
2023/12/29 06:09:19;;;;;;;0.00;0.00;;;;;;;7.88;100.00;99434.63;5109715;27;20015;-76
2023/12/29 06:11:45;;;;;;;0.00;0.00;;;;;;;7.83;100.00;99430.00;5134357;27;20023;-75
2023/12/29 06:14:10;;;;;;;0.00;0.00;;;;;;;7.71;100.00;99415.81;5121578;27;20031;-75
2023/12/29 06:16:36;;;;;;;0.10;0.10;;;;;;;7.81;100.00;99443.88;5137130;27;20027;-78
2023/12/29 06:19:01;;;;;;;0.03;0.03;;;;;;;7.63;100.00;99423.44;5137088;27;20022;-75
2023/12/29 06:21:27;;;;;;;0.00;0.00;;;;;;;7.61;100.00;99431.06;5084077;27;20027;-76
2023/12/29 06:23:52;;;;;;;0.00;0.00;;;;;;;7.60;100.00;99436.78;5134414;27;20035;-75
2023/12/29 06:26:23;;;;;;;0.00;0.00;;;;;;;7.71;100.00;99446.59;5120744;27;20047;-75
2023/12/29 06:28:49;;;;;;;0.00;0.00;;;;;;;7.60;100.00;99429.41;5139013;27;20461;-76
2023/12/29 06:31:17;;;;;;;0.00;0.00;;;;;;;7.59;100.00;99443.28;5097629;27;20023;-76
2023/12/29 06:33:44;;;;;;;0.10;0.10;;;;;;;7.41;100.00;99437.28;5112945;27;20052;-76
2023/12/29 06:36:10;;;;;;;0.00;0.00;;;;;;;7.64;100.00;99465.88;5108103;27;20030;-75
2023/12/29 06:38:36;;;;;;;0.00;0.00;;;;;;;7.58;100.00;99455.25;5137220;27;20377;-76
2023/12/29 06:41:05;;;;;;;0.00;0.00;;;;;;;7.37;100.00;99428.03;5104108;27;20034;-75
2023/12/29 06:43:30;;;;;;;0.00;0.00;;;;;;;7.41;100.00;99445.44;5120374;27;20165;-75
2023/12/29 06:45:56;;;;;;;0.00;0.00;;;;;;;7.44;100.00;99466.66;5130949;27;20110;-76
2023/12/29 06:48:24;;;;;;;0.10;0.10;;;;;;;7.28;100.00;99444.03;5134706;27;20042;-77
2023/12/29 06:50:49;;;;;;;0.00;0.00;;;;;;;7.40;100.00;99445.72;5108863;27;20055;-74
2023/12/29 06:53:17;;;;;;;0.00;0.00;;;;;;;7.42;100.00;99449.81;5110396;27;20023;-77
2023/12/29 06:55:50;;;;;;;0.00;0.00;;;;;;;7.29;100.00;99428.56;5118516;27;20026;-77
2023/12/29 06:58:16;;;;;;;0.00;0.00;;;;;;;7.32;100.00;99444.34;5113938;27;20023;-76
2023/12/29 07:01:02;;;;;;;0.00;0.00;;;;;;;7.33;100.00;99456.88;5112730;27;20027;-75
2023/12/29 07:03:27;;;;;;;0.00;0.00;;;;;;;7.10;100.00;99436.41;5113756;27;20606;-74
2023/12/29 07:05:55;;;;;;;0.00;0.00;;;;;;;7.09;100.00;99443.72;5109256;27;20099;-75
2023/12/29 07:08:20;;;;;;;0.05;0.05;;;;;;;7.03;100.00;99430.41;5137988;27;20015;-74
2023/12/29 07:10:54;;;;;;;0.00;0.00;;;;;;;7.21;100.00;99461.72;5088934;27;20041;-75
2023/12/29 07:13:27;;;;;;;0.00;0.00;;;;;;;7.11;100.00;99444.28;5133033;27;20029;-75
2023/12/29 07:15:52;;;;;;;0.00;0.00;;;;;;;7.18;100.00;99443.22;5130884;27;20172;-75
2023/12/29 07:18:20;;;;;;;0.00;0.00;;;;;;;7.27;100.00;99452.47;5096786;27;20512;-75
2023/12/29 07:20:48;;;;;;;0.00;0.00;;;;;;;7.30;100.00;99452.78;5115640;27;20031;-74
2023/12/29 07:23:14;;;;;;;0.00;0.00;;;;;;;7.35;100.00;99460.13;5119860;27;20067;-75
2023/12/29 07:25:39;;;;;;;0.00;0.00;;;;;;;7.28;100.00;99462.28;5102380;27;20145;-75
2023/12/29 07:28:04;;;;;;;0.00;0.00;;;;;;;7.34;100.00;99458.47;5088933;27;20038;-76
2023/12/29 07:30:40;;;;;;;0.00;0.00;;;;;;;7.47;100.00;99476.19;5119087;27;20027;-75
2023/12/29 07:33:05;;;;;;;0.10;0.10;;;;;;;7.45;100.00;99460.16;5108481;27;20042;-74
2023/12/29 07:35:32;;;;;;;0.00;0.00;;;;;;;7.62;100.00;99472.69;5126375;27;20026;-74
2023/12/29 07:37:57;;;;;;;0.00;0.00;;;;;;;7.56;100.00;99454.72;5090480;27;20118;-75
2023/12/29 07:40:23;;;;;;;0.00;0.00;;;;;;;7.64;100.00;99463.16;5120910;27;20102;-76
2023/12/29 07:42:50;;;;;;;0.00;0.00;;;;;;;7.55;100.00;99448.47;5094797;27;20034;-75
2023/12/29 07:45:16;;;;;;;0.10;0.10;;;;;;;7.51;100.00;99459.06;5104416;27;20392;-79
2023/12/29 07:47:59;;;;;;;0.00;0.00;;;;;;;7.41;100.00;99455.50;5100740;27;20468;-80
2023/12/29 07:50:35;;;;;;;;;;;;;;;;;;;;;
2023/12/29 07:53:02;;;;;;;0.00;0.00;;;;;;;7.56;100.00;99471.03;5120262;27;20029;-76
2023/12/29 07:55:47;;;;;;;;;;;;;;;;;;;;;
2023/12/29 07:58:12;;;;;;;0.00;0.00;;;;;;;7.23;100.00;99424.19;5124572;27;20023;-76
2023/12/29 08:00:47;;;;;;;0.00;0.00;;;;;;;7.29;100.00;99461.19;5124358;27;20031;-78
2023/12/29 08:03:18;;;;;;;0.00;0.00;;;;;;;7.22;100.00;99455.19;5115240;27;20023;-77
2023/12/29 08:06:06;;;;;;;0.00;0.00;;;;;;;7.07;100.00;99421.44;5103924;27;20031;-78
2023/12/29 08:08:34;;;;;;;0.00;0.00;;;;;;;7.27;100.00;99430.72;5125946;27;20460;-76
2023/12/29 08:11:12;;;;;;;;;;;;;;;;;;;;;
2023/12/29 08:13:48;;;;;;;;;;;;;;;;;;;;;
2023/12/29 08:16:19;;;;;;;0.00;0.00;;;;;;;7.49;100.00;99466.69;5130927;27;20017;-77
2023/12/29 08:18:47;;;;;;;0.00;0.00;;;;;;;7.56;100.00;99465.59;5101699;27;20039;-80
2023/12/29 08:21:21;;;;;;;0.00;0.00;;;;;;;7.63;100.00;99461.53;5086101;27;20026;-79
2023/12/29 08:23:47;;;;;;;0.00;0.00;;;;;;;7.65;100.00;99447.66;5105430;28;20096;-78
2023/12/29 08:26:14;;;;;;;0.00;0.00;;;;;;;7.72;100.00;99459.09;5119653;27;20126;-78
2023/12/29 08:28:46;;;;;;;0.00;0.00;;;;;;;7.69;100.00;99437.84;5139854;27;20063;-78
2023/12/29 08:31:27;;;;;;;0.00;0.00;;;;;;;7.79;100.00;99465.09;5120959;27;20142;-78
2023/12/29 08:33:52;;;;;;;0.00;0.00;;;;;;;7.75;100.00;99442.22;5107046;27;20042;-77
2023/12/29 08:36:19;;;;;;;0.00;0.00;;;;;;;7.82;100.00;99456.38;5112558;27;20097;-78
2023/12/29 08:39:02;;;;;;;0.00;0.00;;;;;;;7.79;100.00;99448.75;5131451;27;20023;-78
2023/12/29 08:41:30;;;;;;;0.00;0.00;;;;;;;7.92;100.00;99462.94;5119170;27;20030;-78
2023/12/29 08:43:56;;;;;;;0.00;0.00;;;;;;;7.92;100.00;99457.47;5113811;27;20023;-77
2023/12/29 08:46:29;;;;;;;0.00;0.00;;;;;;;7.77;100.00;99433.78;5097239;27;20495;-75
2023/12/29 08:52:55;;;;;;;0.00;0.00;;;;;;;8.23;100.00;99488.22;5078429;28;20865;-76
2023/12/29 09:16:46;;;;;;;;;;;;;;;8.93;100.00;99505.88;4919296;25;19919;-77
2023/12/29 09:20:06;;;;;;;0.10;0.10;;;;;;;8.60;100.00;99465.34;5100052;28;19919;-78
2023/12/29 09:23:25;;;;;;;0.00;0.00;;;;;;;8.60;100.00;99510.84;4987686;28;20670;-78
2023/12/29 09:36:34;;;;;;;0.00;0.00;;;;;;;8.69;100.00;99450.03;4941514;28;20512;-80
2023/12/29 09:39:13;;;;;;;0.00;0.00;;;;;;;8.82;100.00;99486.81;4936788;28;20127;-80
2023/12/29 09:42:19;;;;;;;0.00;0.00;;;;;;;8.82;100.00;99492.25;5062164;28;20036;-78
2023/12/29 09:45:02;;;;;;;0.00;0.00;;;;;;;8.44;100.00;99461.84;5044309;28;20062;-81
2023/12/29 09:48:19;;;;;;;0.00;0.00;;;;;;;8.76;100.00;99493.38;5047322;28;20692;-80
2023/12/29 09:50:51;;;;;;;0.00;0.00;;;;;;;8.88;100.00;99491.16;5004683;28;20053;-81
2023/12/29 09:53:46;;;;;;;;;;;;;;;;;;;;;
2023/12/29 09:59:57;;;;;;;0.00;0.00;;;;;;;9.63;100.00;99466.78;5032082;28;20037;-78
2023/12/29 10:02:54;;;;;;;0.00;0.00;;;;;;;9.56;100.00;99516.22;5024503;28;20191;-79
2023/12/29 10:05:29;;;;;;;0.00;0.00;;;;;;;9.14;100.00;99488.34;5049989;28;20194;-84
2023/12/29 10:08:01;;;;;;;0.00;0.00;;;;;;;9.01;100.00;99472.53;5071860;28;20123;-83
2023/12/29 10:10:42;;;;;;;;;;;;;;;;;;;;;
2023/12/29 10:13:11;;;;;;;0.00;0.00;;;;;;;9.21;100.00;99510.69;5093037;28;20034;-83
2023/12/29 10:16:01;;;;;;;0.00;0.00;;;;;;;9.17;100.00;99512.31;5098165;28;20056;-82
2023/12/29 10:19:05;;;;;;;0.00;0.00;;;;;;;8.94;100.00;99472.06;5100107;28;20400;-84
2023/12/29 10:21:48;;;;;;;0.00;0.00;;;;;;;8.70;100.00;99461.75;5067003;28;20155;-82
2023/12/29 10:24:19;;;;;;;0.00;0.00;;;;;;;8.85;100.00;99478.06;5106230;28;20457;-82
2023/12/29 10:27:27;;;;;;;0.00;0.00;;;;;;;8.95;100.00;99500.94;5101567;28;20039;-83
2023/12/29 10:29:59;;;;;;;0.00;0.00;;;;;;;8.84;100.00;99495.50;5102114;28;20578;-83
2023/12/29 10:33:24;;;;;;;;;;;;;;;;;;;;;
2023/12/29 10:36:39;;;;;;;0.00;0.00;;;;;;;8.89;100.00;99451.88;5064907;28;20066;-84
2023/12/29 10:42:28;;;;;;;0.00;0.00;;;;;;;16.49;91.21;99458.16;5104771;28;20003;-83
2023/12/29 10:45:28;;;;;;;0.00;0.00;;;;;;;20.42;71.58;99493.97;5102452;28;20049;-83
2023/12/29 10:48:02;;;;;;;0.00;0.00;;;;;;;22.80;60.51;99478.63;5104547;28;20028;-81
2023/12/29 10:50:45;;;;;;;;;;;;;;;23.68;55.66;99503.91;5108784;28;20038;-82
2023/12/29 10:53:50;;;;;;;;;;;;;;;;;;;;;
2023/12/29 10:56:22;;;;;;;0.00;0.00;;;;;;;21.60;54.27;99485.81;5105725;28;20026;-81
2023/12/29 10:59:00;;;;;;;0.00;0.00;;;;;;;21.23;55.37;99465.84;5102739;28;20039;-82
2023/12/29 11:01:34;;;;;;;0.00;0.00;;;;;;;22.33;56.97;99465.03;5099356;28;20099;-79
2023/12/29 11:04:16;;;;;;;;;;;;;;;;;;;;;
2023/12/29 11:06:47;;;;;;;0.00;0.00;;;;;;;19.34;53.92;99503.47;5102687;28;20038;-80
2023/12/29 11:09:15;;;;;;;0.00;0.00;;;;;;;16.84;68.03;99450.53;5108186;28;20024;-81
2023/12/29 11:11:48;;;;;;;0.00;0.00;;;;;;;17.30;70.43;99455.53;5109524;28;20027;-81
2023/12/29 11:14:33;;;;;;;;;;;;;;;;;;;;;
2023/12/29 11:17:10;;;;;;;;;;;;;;;;;;;;;
2023/12/29 11:19:52;;;;;;;0.00;0.00;;;;;;;19.26;57.80;99460.09;5099893;28;20016;-85
2023/12/29 11:22:44;;;;;;;0.00;0.00;;;;;;;19.35;62.50;99496.00;5096587;28;20023;-81
2023/12/29 11:25:27;;;;;;;0.00;0.00;;;;;;;20.91;58.54;99525.06;5102873;27;20024;-81
2023/12/29 11:27:57;;;;;;;0.00;0.00;;;;;;;19.93;52.83;99509.66;5088138;28;20028;-82
2023/12/29 11:30:52;;;;;;;;;;;;;;;;;;;;;
2023/12/29 11:33:48;;;;;;;0.00;0.00;;;;;;;14.57;67.27;99472.47;5105945;28;20046;-80
2023/12/29 11:36:44;;;;;;;0.00;0.00;;;;;;;13.48;77.37;99511.88;5091771;28;20036;-81
2023/12/29 11:42:42;;;;;;;0.00;0.00;;;;;;;11.72;91.31;99505.09;5095706;28;20036;-79
2023/12/29 11:45:32;;;;;;;0.00;0.00;;;;;;;11.64;91.59;99526.56;5117992;27;20023;-82
2023/12/29 11:48:02;;;;;;;0.00;0.00;;;;;;;11.49;90.25;99519.38;5104901;28;20504;-81
2023/12/29 11:51:24;;;;;;;;;;;;;;;;;;;;;
2023/12/29 11:54:00;;;;;;;0.00;0.00;;;;;;;10.87;95.00;99483.75;5097350;28;20027;-82
2023/12/29 11:56:44;;;;;;;0.00;0.00;;;;;;;10.97;94.74;99483.63;5107353;28;20036;-81
2023/12/29 12:00:18;;;;;;;0.00;0.00;;;;;;;11.97;95.85;99463.66;5087139;28;20038;-84
2023/12/29 12:02:47;;;;;;;0.00;0.00;;;;;;;12.27;88.19;99486.19;5109531;28;20035;-83
2023/12/29 12:06:18;;;;;;;;;;;;;;;;;;;;;
2023/12/29 12:09:52;;;;;;;;;;;;;;;;;;;;;
2023/12/29 12:12:53;;;;;;;;;;;;;;;;;;;;;
2023/12/29 12:15:39;;;;;;;0.00;0.00;;;;;;;16.01;72.76;99493.09;5115698;28;20076;-83
2023/12/29 12:18:35;;;;;;;0.00;0.00;;;;;;;14.93;76.39;99435.72;5123427;28;20032;-81
2023/12/29 12:24:25;;;;;;;0.00;0.00;;;;;;;12.59;80.15;99437.91;5093623;28;20036;-82
2023/12/29 12:27:02;;;;;;;0.10;0.10;;;;;;;12.66;83.23;99453.94;5092070;28;20118;-80
2023/12/29 12:30:38;;;;;;;0.00;0.00;;;;;;;12.60;83.69;99456.00;5088849;28;20024;-80
2023/12/29 12:35:59;;;;;;;0.00;0.00;;;;;;;13.13;82.07;99401.69;5092214;28;20035;-82
2023/12/29 12:38:24;;;;;;;0.00;0.00;;;;;;;13.07;82.37;99464.94;5101157;28;20453;-82
2023/12/29 12:41:28;;;;;;;0.00;0.00;;;;;;;12.26;87.18;99421.50;5100146;28;20035;-83
2023/12/29 12:47:30;;;;;;;0.00;0.00;;;;;;;16.02;78.76;99445.09;5040430;28;20115;-83
2023/12/29 12:50:16;;;;;;;;;;;;;;;;;;;;;
2023/12/29 12:52:42;;;;;;;0.10;0.10;;;;;;;14.48;74.40;99439.41;5062546;28;20068;-82
2023/12/29 12:55:14;;;;;;;0.00;0.00;;;;;;;14.02;79.96;99424.91;5052113;28;20493;-82
2023/12/29 12:58:14;;;;;;;0.00;0.00;;;;;;;14.90;78.22;99472.16;5051832;28;20028;-84
2023/12/29 13:04:05;;;;;;;0.00;0.00;;;;;;;17.89;68.07;99472.00;5046818;28;20036;-83
2023/12/29 13:07:04;;;;;;;0.00;0.00;;;;;;;18.81;61.54;99452.69;5054460;28;20029;-81
2023/12/29 13:10:22;;;;;;;;;;;;;;;;;;;;;
2023/12/29 13:12:55;;;;;;;0.00;0.00;;;;;;;19.59;56.44;99464.63;5085085;28;20119;-81
2023/12/29 13:15:34;;;;;;;0.00;0.00;;;;;;;17.16;59.92;99428.16;5098829;28;20105;-81
2023/12/29 13:18:09;;;;;;;0.00;0.00;;;;;;;17.37;61.41;99448.31;5083116;28;20042;-81
2023/12/29 13:21:37;;;;;;;0.00;0.00;;;;;;;18.96;57.39;99496.31;5109808;28;20058;-82
2023/12/29 13:28:16;;;;;;;0.00;0.00;;;;;;;14.24;67.11;99423.28;5063247;28;20501;-82
2023/12/29 13:31:02;;;;;;;0.00;0.00;;;;;;;15.06;67.53;99437.53;5008573;28;20127;-80